Terminal Aerodrome Forecast
Issued by NWS Shreveport, LA

Current Version | Previous Version | Text Only | Print | Product List | Glossary On
Versions: 1 2 3 4 5 6 7 8 9 10 11 12 13 14 15 16 17
000
FTUS44 KSHV 261100
TAFTYR
TAF
KTYR 261130Z 2612/2712 14010KT P6SM OVC045
     FM261400 15010KT P6SM BKN015 OVC040
     FM261700 16012KT P6SM OVC015
     FM270000 16010KT 4SM BR OVC007
      TEMPO 2704/2708 1 1/2SM -RA BR OVC004=

USA.gov is the U.S. government's official web portal to all federal, state and local government web resources and services.